sensor_id;sensor_type;location;lat;lon;timestamp;P1;durP1;ratioP1;P2;durP2;ratioP2
68509;SDS011;55512;50.102;19.958;2023-06-22T00:00:58;11.90;;;8.20;;
68509;SDS011;55512;50.102;19.958;2023-06-22T00:03:24;12.90;;;7.70;;
68509;SDS011;55512;50.102;19.958;2023-06-22T00:05:51;12.70;;;7.90;;
68509;SDS011;55512;50.102;19.958;2023-06-22T00:08:18;11.90;;;7.80;;
68509;SDS011;55512;50.102;19.958;2023-06-22T00:10:45;18.60;;;9.00;;
68509;SDS011;55512;50.102;19.958;2023-06-22T00:13:12;11.00;;;7.90;;
68509;SDS011;55512;50.102;19.958;2023-06-22T00:15:39;13.50;;;8.30;;
68509;SDS011;55512;50.102;19.958;2023-06-22T00:18:07;12.30;;;7.70;;
68509;SDS011;55512;50.102;19.958;2023-06-22T00:20:35;11.60;;;7.80;;
68509;SDS011;55512;50.102;19.958;2023-06-22T00:23:04;11.00;;;7.80;;
68509;SDS011;55512;50.102;19.958;2023-06-22T00:25:42;12.30;;;8.10;;
68509;SDS011;55512;50.102;19.958;2023-06-22T00:28:08;11.90;;;7.60;;
68509;SDS011;55512;50.102;19.958;2023-06-22T00:30:34;11.90;;;8.30;;
68509;SDS011;55512;50.102;19.958;2023-06-22T00:33:00;12.80;;;9.10;;
68509;SDS011;55512;50.102;19.958;2023-06-22T00:35:27;12.10;;;8.20;;
68509;SDS011;55512;50.102;19.958;2023-06-22T00:37:56;10.90;;;7.20;;
68509;SDS011;55512;50.102;19.958;2023-06-22T00:40:28;10.70;;;7.10;;
68509;SDS011;55512;50.102;19.958;2023-06-22T00:42:55;12.20;;;8.00;;
68509;SDS011;55512;50.102;19.958;2023-06-22T00:45:22;12.30;;;8.00;;
68509;SDS011;55512;50.102;19.958;2023-06-22T00:47:52;11.40;;;7.30;;
68509;SDS011;55512;50.102;19.958;2023-06-22T00:50:20;12.00;;;7.90;;
68509;SDS011;55512;50.102;19.958;2023-06-22T00:52:56;13.20;;;8.10;;
68509;SDS011;55512;50.102;19.958;2023-06-22T00:55:24;14.90;;;8.50;;
68509;SDS011;55512;50.102;19.958;2023-06-22T00:57:53;13.20;;;7.80;;
68509;SDS011;55512;50.102;19.958;2023-06-22T01:00:23;14.40;;;8.50;;
68509;SDS011;55512;50.102;19.958;2023-06-22T01:02:51;11.80;;;7.70;;
68509;SDS011;55512;50.102;19.958;2023-06-22T01:05:21;12.40;;;7.40;;
68509;SDS011;55512;50.102;19.958;2023-06-22T01:10:49;11.30;;;7.70;;
68509;SDS011;55512;50.102;19.958;2023-06-22T01:13:40;10.90;;;7.80;;
68509;SDS011;55512;50.102;19.958;2023-06-22T01:16:18;11.20;;;7.40;;
68509;SDS011;55512;50.102;19.958;2023-06-22T01:18:51;12.50;;;7.50;;
68509;SDS011;55512;50.102;19.958;2023-06-22T01:21:19;13.00;;;7.20;;
68509;SDS011;55512;50.102;19.958;2023-06-22T01:26:43;11.50;;;6.90;;
68509;SDS011;55512;50.102;19.958;2023-06-22T01:29:33;12.30;;;6.60;;
68509;SDS011;55512;50.102;19.958;2023-06-22T01:32:01;11.30;;;6.70;;
68509;SDS011;55512;50.102;19.958;2023-06-22T01:34:29;11.20;;;6.50;;
68509;SDS011;55512;50.102;19.958;2023-06-22T01:36:58;11.10;;;7.30;;
68509;SDS011;55512;50.102;19.958;2023-06-22T01:39:25;10.50;;;6.10;;
68509;SDS011;55512;50.102;19.958;2023-06-22T01:41:51;11.10;;;6.50;;
68509;SDS011;55512;50.102;19.958;2023-06-22T01:44:19;9.40;;;6.20;;
68509;SDS011;55512;50.102;19.958;2023-06-22T01:46:45;11.50;;;6.10;;
68509;SDS011;55512;50.102;19.958;2023-06-22T01:49:12;9.60;;;5.90;;
68509;SDS011;55512;50.102;19.958;2023-06-22T01:51:37;10.70;;;5.50;;
68509;SDS011;55512;50.102;19.958;2023-06-22T01:54:03;11.50;;;6.10;;
68509;SDS011;55512;50.102;19.958;2023-06-22T01:56:30;11.50;;;6.00;;
68509;SDS011;55512;50.102;19.958;2023-06-22T01:59:14;10.20;;;5.90;;
68509;SDS011;55512;50.102;19.958;2023-06-22T02:02:01;9.90;;;5.30;;
68509;SDS011;55512;50.102;19.958;2023-06-22T02:04:46;9.30;;;5.50;;
68509;SDS011;55512;50.102;19.958;2023-06-22T02:07:18;10.50;;;5.80;;
68509;SDS011;55512;50.102;19.958;2023-06-22T02:09:48;9.00;;;5.40;;
68509;SDS011;55512;50.102;19.958;2023-06-22T02:12:21;9.50;;;5.70;;
68509;SDS011;55512;50.102;19.958;2023-06-22T02:14:50;9.90;;;6.30;;
68509;SDS011;55512;50.102;19.958;2023-06-22T02:17:17;10.50;;;6.00;;
68509;SDS011;55512;50.102;19.958;2023-06-22T02:19:43;11.30;;;5.60;;
68509;SDS011;55512;50.102;19.958;2023-06-22T02:22:09;10.00;;;5.40;;
68509;SDS011;55512;50.102;19.958;2023-06-22T02:24:34;10.60;;;6.00;;
68509;SDS011;55512;50.102;19.958;2023-06-22T02:27:01;10.70;;;6.00;;
68509;SDS011;55512;50.102;19.958;2023-06-22T02:29:28;10.40;;;5.90;;
68509;SDS011;55512;50.102;19.958;2023-06-22T02:31:54;10.10;;;5.90;;
68509;SDS011;55512;50.102;19.958;2023-06-22T02:34:23;9.90;;;5.60;;
68509;SDS011;55512;50.102;19.958;2023-06-22T02:36:49;8.10;;;5.30;;
68509;SDS011;55512;50.102;19.958;2023-06-22T02:39:22;9.50;;;5.50;;
68509;SDS011;55512;50.102;19.958;2023-06-22T02:41:53;10.00;;;6.00;;
68509;SDS011;55512;50.102;19.958;2023-06-22T02:44:20;10.10;;;6.00;;
68509;SDS011;55512;50.102;19.958;2023-06-22T02:46:47;10.00;;;6.40;;
68509;SDS011;55512;50.102;19.958;2023-06-22T02:49:13;13.60;;;6.70;;
68509;SDS011;55512;50.102;19.958;2023-06-22T02:51:41;13.70;;;6.90;;
68509;SDS011;55512;50.102;19.958;2023-06-22T02:54:12;11.20;;;6.10;;
68509;SDS011;55512;50.102;19.958;2023-06-22T02:56:37;11.20;;;6.50;;
68509;SDS011;55512;50.102;19.958;2023-06-22T02:59:03;11.90;;;6.40;;
68509;SDS011;55512;50.102;19.958;2023-06-22T03:01:28;14.30;;;6.20;;
68509;SDS011;55512;50.102;19.958;2023-06-22T03:03:58;12.10;;;5.90;;
68509;SDS011;55512;50.102;19.958;2023-06-22T03:06:24;10.40;;;6.20;;
68509;SDS011;55512;50.102;19.958;2023-06-22T03:09:02;10.90;;;6.20;;
68509;SDS011;55512;50.102;19.958;2023-06-22T03:11:30;12.10;;;5.80;;
68509;SDS011;55512;50.102;19.958;2023-06-22T03:13:56;10.60;;;5.50;;
68509;SDS011;55512;50.102;19.958;2023-06-22T03:16:22;10.60;;;6.00;;
68509;SDS011;55512;50.102;19.958;2023-06-22T03:18:47;11.20;;;5.70;;
68509;SDS011;55512;50.102;19.958;2023-06-22T03:21:13;10.60;;;6.10;;
68509;SDS011;55512;50.102;19.958;2023-06-22T03:23:40;10.00;;;5.80;;
68509;SDS011;55512;50.102;19.958;2023-06-22T03:26:06;11.50;;;5.40;;
68509;SDS011;55512;50.102;19.958;2023-06-22T03:28:33;11.10;;;5.60;;
68509;SDS011;55512;50.102;19.958;2023-06-22T03:30:58;9.10;;;5.00;;
68509;SDS011;55512;50.102;19.958;2023-06-22T03:33:24;9.60;;;5.20;;
68509;SDS011;55512;50.102;19.958;2023-06-22T03:35:49;12.50;;;5.30;;
68509;SDS011;55512;50.102;19.958;2023-06-22T03:38:16;10.40;;;5.30;;
68509;SDS011;55512;50.102;19.958;2023-06-22T03:40:42;7.80;;;4.90;;
68509;SDS011;55512;50.102;19.958;2023-06-22T03:43:07;9.60;;;5.50;;
68509;SDS011;55512;50.102;19.958;2023-06-22T03:45:33;9.70;;;5.30;;
68509;SDS011;55512;50.102;19.958;2023-06-22T03:47:58;11.10;;;5.20;;
68509;SDS011;55512;50.102;19.958;2023-06-22T03:50:25;9.10;;;4.70;;
68509;SDS011;55512;50.102;19.958;2023-06-22T03:52:50;10.40;;;5.00;;
68509;SDS011;55512;50.102;19.958;2023-06-22T03:55:17;10.80;;;5.60;;
68509;SDS011;55512;50.102;19.958;2023-06-22T03:57:44;10.00;;;5.50;;
68509;SDS011;55512;50.102;19.958;2023-06-22T04:00:10;10.60;;;4.80;;
68509;SDS011;55512;50.102;19.958;2023-06-22T04:02:37;11.00;;;5.10;;
68509;SDS011;55512;50.102;19.958;2023-06-22T04:05:02;10.00;;;5.30;;
68509;SDS011;55512;50.102;19.958;2023-06-22T04:07:28;12.30;;;4.70;;
68509;SDS011;55512;50.102;19.958;2023-06-22T04:09:53;10.20;;;5.20;;
68509;SDS011;55512;50.102;19.958;2023-06-22T04:12:18;8.50;;;4.90;;
68509;SDS011;55512;50.102;19.958;2023-06-22T04:14:44;9.20;;;4.80;;
68509;SDS011;55512;50.102;19.958;2023-06-22T04:17:09;9.10;;;4.60;;
68509;SDS011;55512;50.102;19.958;2023-06-22T04:19:35;9.80;;;4.70;;
68509;SDS011;55512;50.102;19.958;2023-06-22T04:22:00;8.90;;;4.50;;
68509;SDS011;55512;50.102;19.958;2023-06-22T04:24:26;10.80;;;4.60;;
68509;SDS011;55512;50.102;19.958;2023-06-22T04:26:51;10.80;;;4.90;;
68509;SDS011;55512;50.102;19.958;2023-06-22T04:29:19;10.70;;;4.80;;
68509;SDS011;55512;50.102;19.958;2023-06-22T04:31:45;11.00;;;4.20;;
68509;SDS011;55512;50.102;19.958;2023-06-22T04:34:16;11.40;;;4.20;;
68509;SDS011;55512;50.102;19.958;2023-06-22T04:36:42;10.70;;;4.10;;
68509;SDS011;55512;50.102;19.958;2023-06-22T04:39:10;10.20;;;3.80;;
68509;SDS011;55512;50.102;19.958;2023-06-22T04:41:40;8.90;;;4.00;;
68509;SDS011;55512;50.102;19.958;2023-06-22T04:44:10;9.80;;;4.30;;
68509;SDS011;55512;50.102;19.958;2023-06-22T04:46:36;8.00;;;4.10;;
68509;SDS011;55512;50.102;19.958;2023-06-22T04:49:06;8.40;;;4.20;;
68509;SDS011;55512;50.102;19.958;2023-06-22T04:51:44;10.30;;;3.90;;
68509;SDS011;55512;50.102;19.958;2023-06-22T04:54:09;10.80;;;4.70;;
68509;SDS011;55512;50.102;19.958;2023-06-22T04:56:35;12.90;;;4.50;;
68509;SDS011;55512;50.102;19.958;2023-06-22T04:59:01;10.50;;;4.30;;
68509;SDS011;55512;50.102;19.958;2023-06-22T05:01:28;12.40;;;5.40;;
68509;SDS011;55512;50.102;19.958;2023-06-22T05:03:56;11.50;;;4.80;;
68509;SDS011;55512;50.102;19.958;2023-06-22T05:06:25;12.40;;;5.00;;
68509;SDS011;55512;50.102;19.958;2023-06-22T05:08:53;11.10;;;4.60;;
68509;SDS011;55512;50.102;19.958;2023-06-22T05:11:23;10.70;;;4.60;;
68509;SDS011;55512;50.102;19.958;2023-06-22T05:13:49;10.10;;;5.30;;
68509;SDS011;55512;50.102;19.958;2023-06-22T05:16:15;9.10;;;4.90;;
68509;SDS011;55512;50.102;19.958;2023-06-22T05:18:41;14.50;;;5.20;;
68509;SDS011;55512;50.102;19.958;2023-06-22T05:21:07;9.30;;;4.40;;
68509;SDS011;55512;50.102;19.958;2023-06-22T05:23:32;9.50;;;4.90;;
68509;SDS011;55512;50.102;19.958;2023-06-22T05:25:57;101.70;;;17.10;;
68509;SDS011;55512;50.102;19.958;2023-06-22T05:28:23;71.20;;;12.90;;
68509;SDS011;55512;50.102;19.958;2023-06-22T05:30:48;35.50;;;8.90;;
68509;SDS011;55512;50.102;19.958;2023-06-22T05:33:14;14.50;;;5.60;;
68509;SDS011;55512;50.102;19.958;2023-06-22T05:35:39;10.50;;;5.40;;
68509;SDS011;55512;50.102;19.958;2023-06-22T05:38:04;11.70;;;5.80;;
68509;SDS011;55512;50.102;19.958;2023-06-22T05:40:30;10.70;;;5.30;;
68509;SDS011;55512;50.102;19.958;2023-06-22T05:42:55;11.90;;;5.50;;
68509;SDS011;55512;50.102;19.958;2023-06-22T05:45:21;12.80;;;5.40;;
68509;SDS011;55512;50.102;19.958;2023-06-22T05:47:46;10.40;;;5.60;;
68509;SDS011;55512;50.102;19.958;2023-06-22T05:50:14;12.60;;;6.10;;
68509;SDS011;55512;50.102;19.958;2023-06-22T05:52:39;15.70;;;6.30;;
68509;SDS011;55512;50.102;19.958;2023-06-22T05:55:05;13.70;;;6.80;;
68509;SDS011;55512;50.102;19.958;2023-06-22T05:57:31;13.20;;;6.10;;
68509;SDS011;55512;50.102;19.958;2023-06-22T05:59:56;14.90;;;6.60;;
68509;SDS011;55512;50.102;19.958;2023-06-22T06:02:21;12.80;;;7.00;;
68509;SDS011;55512;50.102;19.958;2023-06-22T06:04:47;14.00;;;7.20;;
68509;SDS011;55512;50.102;19.958;2023-06-22T06:07:12;14.40;;;8.30;;
68509;SDS011;55512;50.102;19.958;2023-06-22T06:09:38;15.80;;;8.20;;
68509;SDS011;55512;50.102;19.958;2023-06-22T06:12:04;16.30;;;8.20;;
68509;SDS011;55512;50.102;19.958;2023-06-22T06:14:29;12.40;;;7.50;;
68509;SDS011;55512;50.102;19.958;2023-06-22T06:16:55;17.80;;;7.60;;
68509;SDS011;55512;50.102;19.958;2023-06-22T06:19:20;16.20;;;9.70;;
68509;SDS011;55512;50.102;19.958;2023-06-22T06:21:46;16.50;;;7.80;;
68509;SDS011;55512;50.102;19.958;2023-06-22T06:24:11;18.00;;;9.20;;
68509;SDS011;55512;50.102;19.958;2023-06-22T06:26:37;16.60;;;8.40;;
68509;SDS011;55512;50.102;19.958;2023-06-22T06:29:02;15.40;;;9.50;;
68509;SDS011;55512;50.102;19.958;2023-06-22T06:31:28;18.40;;;11.40;;
68509;SDS011;55512;50.102;19.958;2023-06-22T06:33:54;19.30;;;12.80;;
68509;SDS011;55512;50.102;19.958;2023-06-22T06:36:20;19.00;;;13.00;;
68509;SDS011;55512;50.102;19.958;2023-06-22T06:38:46;19.50;;;12.70;;
68509;SDS011;55512;50.102;19.958;2023-06-22T06:41:13;21.50;;;13.70;;
68509;SDS011;55512;50.102;19.958;2023-06-22T06:43:40;18.60;;;12.40;;
68509;SDS011;55512;50.102;19.958;2023-06-22T06:46:08;21.40;;;14.30;;
68509;SDS011;55512;50.102;19.958;2023-06-22T06:48:33;23.30;;;15.20;;
68509;SDS011;55512;50.102;19.958;2023-06-22T06:50:59;22.90;;;15.60;;
68509;SDS011;55512;50.102;19.958;2023-06-22T06:53:24;24.50;;;15.20;;
68509;SDS011;55512;50.102;19.958;2023-06-22T06:55:49;23.90;;;15.10;;
68509;SDS011;55512;50.102;19.958;2023-06-22T06:58:15;23.70;;;15.60;;
68509;SDS011;55512;50.102;19.958;2023-06-22T07:00:41;22.60;;;14.30;;
68509;SDS011;55512;50.102;19.958;2023-06-22T07:03:08;22.50;;;12.80;;
68509;SDS011;55512;50.102;19.958;2023-06-22T07:05:34;20.80;;;12.90;;
68509;SDS011;55512;50.102;19.958;2023-06-22T07:08:01;18.30;;;12.40;;
68509;SDS011;55512;50.102;19.958;2023-06-22T07:10:26;20.80;;;12.40;;
68509;SDS011;55512;50.102;19.958;2023-06-22T07:12:53;19.90;;;13.20;;
68509;SDS011;55512;50.102;19.958;2023-06-22T07:15:18;22.60;;;14.50;;
68509;SDS011;55512;50.102;19.958;2023-06-22T07:17:44;27.80;;;17.20;;
68509;SDS011;55512;50.102;19.958;2023-06-22T07:20:12;24.80;;;17.30;;
68509;SDS011;55512;50.102;19.958;2023-06-22T07:22:41;22.00;;;16.50;;
68509;SDS011;55512;50.102;19.958;2023-06-22T07:25:08;23.80;;;17.00;;
68509;SDS011;55512;50.102;19.958;2023-06-22T07:27:58;25.90;;;16.70;;
68509;SDS011;55512;50.102;19.958;2023-06-22T07:30:25;24.20;;;17.20;;
68509;SDS011;55512;50.102;19.958;2023-06-22T07:32:50;21.00;;;16.10;;
68509;SDS011;55512;50.102;19.958;2023-06-22T07:35:16;37.70;;;16.60;;
68509;SDS011;55512;50.102;19.958;2023-06-22T07:37:42;19.20;;;13.70;;
68509;SDS011;55512;50.102;19.958;2023-06-22T07:40:08;19.10;;;14.00;;
68509;SDS011;55512;50.102;19.958;2023-06-22T07:42:34;20.90;;;15.00;;
68509;SDS011;55512;50.102;19.958;2023-06-22T07:45:01;17.60;;;13.00;;
68509;SDS011;55512;50.102;19.958;2023-06-22T07:47:28;21.70;;;15.40;;
68509;SDS011;55512;50.102;19.958;2023-06-22T07:49:54;21.00;;;13.60;;
68509;SDS011;55512;50.102;19.958;2023-06-22T07:52:22;20.60;;;15.40;;
68509;SDS011;55512;50.102;19.958;2023-06-22T07:54:48;21.80;;;15.80;;
68509;SDS011;55512;50.102;19.958;2023-06-22T07:57:14;15.20;;;12.00;;
68509;SDS011;55512;50.102;19.958;2023-06-22T07:59:39;22.40;;;15.00;;
68509;SDS011;55512;50.102;19.958;2023-06-22T08:02:05;22.50;;;14.60;;
68509;SDS011;55512;50.102;19.958;2023-06-22T08:04:30;20.20;;;13.90;;
68509;SDS011;55512;50.102;19.958;2023-06-22T08:06:59;18.50;;;14.30;;
68509;SDS011;55512;50.102;19.958;2023-06-22T08:09:24;17.20;;;13.10;;
68509;SDS011;55512;50.102;19.958;2023-06-22T08:11:49;17.00;;;13.30;;
68509;SDS011;55512;50.102;19.958;2023-06-22T08:14:15;19.90;;;14.90;;
68509;SDS011;55512;50.102;19.958;2023-06-22T08:16:41;24.00;;;16.00;;
68509;SDS011;55512;50.102;19.958;2023-06-22T08:19:07;19.40;;;14.40;;
68509;SDS011;55512;50.102;19.958;2023-06-22T08:21:32;19.80;;;13.20;;
68509;SDS011;55512;50.102;19.958;2023-06-22T08:23:58;15.80;;;12.10;;
68509;SDS011;55512;50.102;19.958;2023-06-22T08:26:23;15.60;;;12.20;;
68509;SDS011;55512;50.102;19.958;2023-06-22T08:28:49;18.40;;;13.80;;
68509;SDS011;55512;50.102;19.958;2023-06-22T08:31:14;16.50;;;13.60;;
68509;SDS011;55512;50.102;19.958;2023-06-22T08:33:40;22.50;;;14.80;;
68509;SDS011;55512;50.102;19.958;2023-06-22T08:36:06;18.70;;;14.10;;
68509;SDS011;55512;50.102;19.958;2023-06-22T08:38:33;17.70;;;12.80;;
68509;SDS011;55512;50.102;19.958;2023-06-22T08:40:58;16.10;;;11.30;;
68509;SDS011;55512;50.102;19.958;2023-06-22T08:43:25;15.70;;;13.50;;
68509;SDS011;55512;50.102;19.958;2023-06-22T08:45:50;17.10;;;12.30;;
68509;SDS011;55512;50.102;19.958;2023-06-22T08:48:16;14.10;;;10.40;;
68509;SDS011;55512;50.102;19.958;2023-06-22T08:50:41;15.00;;;11.20;;
68509;SDS011;55512;50.102;19.958;2023-06-22T08:53:07;14.20;;;10.40;;
68509;SDS011;55512;50.102;19.958;2023-06-22T08:55:33;14.20;;;11.00;;
68509;SDS011;55512;50.102;19.958;2023-06-22T08:57:59;16.10;;;11.30;;
68509;SDS011;55512;50.102;19.958;2023-06-22T09:00:24;12.00;;;9.20;;
68509;SDS011;55512;50.102;19.958;2023-06-22T09:02:50;12.70;;;10.30;;
68509;SDS011;55512;50.102;19.958;2023-06-22T09:05:15;14.20;;;11.00;;
68509;SDS011;55512;50.102;19.958;2023-06-22T09:07:41;14.00;;;10.60;;
68509;SDS011;55512;50.102;19.958;2023-06-22T09:10:08;12.70;;;9.50;;
68509;SDS011;55512;50.102;19.958;2023-06-22T09:12:34;19.80;;;10.10;;
68509;SDS011;55512;50.102;19.958;2023-06-22T09:15:00;10.90;;;7.90;;
68509;SDS011;55512;50.102;19.958;2023-06-22T09:17:26;11.10;;;7.60;;
68509;SDS011;55512;50.102;19.958;2023-06-22T09:19:52;13.30;;;10.30;;
68509;SDS011;55512;50.102;19.958;2023-06-22T09:22:17;14.20;;;10.10;;
68509;SDS011;55512;50.102;19.958;2023-06-22T09:24:43;11.90;;;9.70;;
68509;SDS011;55512;50.102;19.958;2023-06-22T09:27:08;11.00;;;8.60;;
68509;SDS011;55512;50.102;19.958;2023-06-22T09:29:34;13.00;;;9.50;;
68509;SDS011;55512;50.102;19.958;2023-06-22T09:32:00;11.80;;;9.40;;
68509;SDS011;55512;50.102;19.958;2023-06-22T09:34:26;12.70;;;9.20;;
68509;SDS011;55512;50.102;19.958;2023-06-22T09:36:52;12.30;;;8.30;;
68509;SDS011;55512;50.102;19.958;2023-06-22T09:39:18;11.90;;;7.70;;
68509;SDS011;55512;50.102;19.958;2023-06-22T09:41:44;12.60;;;8.30;;
68509;SDS011;55512;50.102;19.958;2023-06-22T09:44:09;10.50;;;7.70;;
68509;SDS011;55512;50.102;19.958;2023-06-22T09:46:38;12.00;;;8.80;;
68509;SDS011;55512;50.102;19.958;2023-06-22T09:49:03;11.50;;;7.50;;
68509;SDS011;55512;50.102;19.958;2023-06-22T09:51:29;11.10;;;8.40;;
68509;SDS011;55512;50.102;19.958;2023-06-22T09:53:54;11.50;;;7.50;;
68509;SDS011;55512;50.102;19.958;2023-06-22T09:56:20;11.40;;;7.60;;
68509;SDS011;55512;50.102;19.958;2023-06-22T09:58:46;11.80;;;7.30;;
68509;SDS011;55512;50.102;19.958;2023-06-22T10:01:12;11.80;;;7.60;;
68509;SDS011;55512;50.102;19.958;2023-06-22T10:03:41;11.50;;;6.40;;
68509;SDS011;55512;50.102;19.958;2023-06-22T10:06:07;10.30;;;7.00;;
68509;SDS011;55512;50.102;19.958;2023-06-22T10:08:34;10.60;;;7.80;;
68509;SDS011;55512;50.102;19.958;2023-06-22T10:11:00;11.00;;;7.10;;
68509;SDS011;55512;50.102;19.958;2023-06-22T10:13:26;11.40;;;8.10;;
68509;SDS011;55512;50.102;19.958;2023-06-22T10:15:52;10.40;;;6.50;;
68509;SDS011;55512;50.102;19.958;2023-06-22T10:18:18;11.90;;;8.50;;
68509;SDS011;55512;50.102;19.958;2023-06-22T10:20:47;10.80;;;7.80;;
68509;SDS011;55512;50.102;19.958;2023-06-22T10:23:18;12.90;;;8.00;;
68509;SDS011;55512;50.102;19.958;2023-06-22T10:25:45;14.80;;;8.60;;
68509;SDS011;55512;50.102;19.958;2023-06-22T10:28:11;11.40;;;7.90;;
68509;SDS011;55512;50.102;19.958;2023-06-22T10:30:39;9.20;;;5.90;;
68509;SDS011;55512;50.102;19.958;2023-06-22T10:33:11;10.60;;;7.60;;
68509;SDS011;55512;50.102;19.958;2023-06-22T10:35:37;9.90;;;7.70;;
68509;SDS011;55512;50.102;19.958;2023-06-22T10:38:03;12.90;;;8.10;;
68509;SDS011;55512;50.102;19.958;2023-06-22T10:40:30;10.10;;;7.70;;
68509;SDS011;55512;50.102;19.958;2023-06-22T10:42:55;10.10;;;7.60;;
68509;SDS011;55512;50.102;19.958;2023-06-22T10:45:21;11.20;;;7.40;;
68509;SDS011;55512;50.102;19.958;2023-06-22T10:47:47;11.10;;;7.70;;
68509;SDS011;55512;50.102;19.958;2023-06-22T10:50:13;9.40;;;7.00;;
68509;SDS011;55512;50.102;19.958;2023-06-22T10:52:39;11.40;;;7.70;;
68509;SDS011;55512;50.102;19.958;2023-06-22T10:55:07;13.30;;;8.20;;
68509;SDS011;55512;50.102;19.958;2023-06-22T10:57:33;12.00;;;7.70;;
68509;SDS011;55512;50.102;19.958;2023-06-22T10:59:59;10.20;;;7.60;;
68509;SDS011;55512;50.102;19.958;2023-06-22T11:02:24;10.90;;;7.70;;
68509;SDS011;55512;50.102;19.958;2023-06-22T11:04:50;11.60;;;7.70;;
68509;SDS011;55512;50.102;19.958;2023-06-22T11:07:15;11.40;;;8.00;;
68509;SDS011;55512;50.102;19.958;2023-06-22T11:09:43;10.50;;;7.20;;
68509;SDS011;55512;50.102;19.958;2023-06-22T11:12:08;9.50;;;7.40;;
68509;SDS011;55512;50.102;19.958;2023-06-22T11:14:34;10.60;;;7.30;;
68509;SDS011;55512;50.102;19.958;2023-06-22T11:16:59;11.50;;;8.00;;
68509;SDS011;55512;50.102;19.958;2023-06-22T11:19:25;10.70;;;8.00;;
68509;SDS011;55512;50.102;19.958;2023-06-22T11:21:50;11.10;;;6.70;;
68509;SDS011;55512;50.102;19.958;2023-06-22T11:24:16;10.50;;;7.50;;
68509;SDS011;55512;50.102;19.958;2023-06-22T11:26:43;11.60;;;7.70;;
68509;SDS011;55512;50.102;19.958;2023-06-22T11:29:08;10.20;;;6.80;;
68509;SDS011;55512;50.102;19.958;2023-06-22T11:31:35;14.40;;;7.80;;
68509;SDS011;55512;50.102;19.958;2023-06-22T11:34:01;10.10;;;7.00;;
68509;SDS011;55512;50.102;19.958;2023-06-22T11:36:27;9.20;;;7.10;;
68509;SDS011;55512;50.102;19.958;2023-06-22T11:38:54;27.30;;;10.50;;
68509;SDS011;55512;50.102;19.958;2023-06-22T11:41:20;12.00;;;7.30;;
68509;SDS011;55512;50.102;19.958;2023-06-22T11:43:45;18.80;;;9.00;;
68509;SDS011;55512;50.102;19.958;2023-06-22T11:46:11;9.70;;;7.10;;
68509;SDS011;55512;50.102;19.958;2023-06-22T11:48:36;9.40;;;5.20;;
68509;SDS011;55512;50.102;19.958;2023-06-22T11:51:03;10.60;;;6.80;;
68509;SDS011;55512;50.102;19.958;2023-06-22T11:53:28;16.60;;;9.40;;
68509;SDS011;55512;50.102;19.958;2023-06-22T11:55:54;12.50;;;7.00;;
68509;SDS011;55512;50.102;19.958;2023-06-22T11:58:20;11.50;;;7.20;;
68509;SDS011;55512;50.102;19.958;2023-06-22T12:00:47;15.60;;;8.00;;
68509;SDS011;55512;50.102;19.958;2023-06-22T12:03:13;9.00;;;5.30;;
68509;SDS011;55512;50.102;19.958;2023-06-22T12:05:40;7.90;;;5.60;;
68509;SDS011;55512;50.102;19.958;2023-06-22T12:08:06;10.30;;;6.70;;
68509;SDS011;55512;50.102;19.958;2023-06-22T12:10:31;9.00;;;6.00;;
68509;SDS011;55512;50.102;19.958;2023-06-22T12:12:57;8.80;;;6.20;;
68509;SDS011;55512;50.102;19.958;2023-06-22T12:15:25;11.20;;;7.10;;
68509;SDS011;55512;50.102;19.958;2023-06-22T12:17:51;9.10;;;6.50;;
68509;SDS011;55512;50.102;19.958;2023-06-22T12:20:17;9.80;;;6.40;;
68509;SDS011;55512;50.102;19.958;2023-06-22T12:22:43;9.80;;;6.50;;
68509;SDS011;55512;50.102;19.958;2023-06-22T12:25:08;17.00;;;8.00;;
68509;SDS011;55512;50.102;19.958;2023-06-22T12:27:35;9.20;;;6.30;;
68509;SDS011;55512;50.102;19.958;2023-06-22T12:30:01;9.20;;;6.40;;
68509;SDS011;55512;50.102;19.958;2023-06-22T12:32:27;10.60;;;6.70;;
68509;SDS011;55512;50.102;19.958;2023-06-22T12:34:53;9.50;;;5.60;;
68509;SDS011;55512;50.102;19.958;2023-06-22T12:37:18;8.90;;;7.10;;
68509;SDS011;55512;50.102;19.958;2023-06-22T12:39:44;11.30;;;6.30;;
68509;SDS011;55512;50.102;19.958;2023-06-22T12:42:10;10.30;;;5.70;;
68509;SDS011;55512;50.102;19.958;2023-06-22T12:44:38;8.50;;;6.40;;
68509;SDS011;55512;50.102;19.958;2023-06-22T12:47:05;8.60;;;6.50;;
68509;SDS011;55512;50.102;19.958;2023-06-22T12:49:30;10.30;;;6.10;;
68509;SDS011;55512;50.102;19.958;2023-06-22T12:51:56;10.80;;;7.50;;
68509;SDS011;55512;50.102;19.958;2023-06-22T12:54:21;9.40;;;6.30;;
68509;SDS011;55512;50.102;19.958;2023-06-22T12:56:47;8.50;;;6.50;;
68509;SDS011;55512;50.102;19.958;2023-06-22T12:59:12;9.10;;;6.70;;
68509;SDS011;55512;50.102;19.958;2023-06-22T13:01:37;11.70;;;6.40;;
68509;SDS011;55512;50.102;19.958;2023-06-22T13:04:03;10.80;;;7.00;;
68509;SDS011;55512;50.102;19.958;2023-06-22T13:06:29;10.50;;;6.20;;
68509;SDS011;55512;50.102;19.958;2023-06-22T13:08:55;21.10;;;7.90;;
68509;SDS011;55512;50.102;19.958;2023-06-22T13:11:20;10.70;;;6.70;;
68509;SDS011;55512;50.102;19.958;2023-06-22T13:13:46;10.90;;;6.40;;
68509;SDS011;55512;50.102;19.958;2023-06-22T13:16:12;11.20;;;6.30;;
68509;SDS011;55512;50.102;19.958;2023-06-22T13:18:38;21.50;;;8.60;;
68509;SDS011;55512;50.102;19.958;2023-06-22T13:21:04;8.30;;;6.10;;
68509;SDS011;55512;50.102;19.958;2023-06-22T13:23:30;18.40;;;7.30;;
68509;SDS011;55512;50.102;19.958;2023-06-22T13:25:55;9.80;;;6.50;;
68509;SDS011;55512;50.102;19.958;2023-06-22T13:28:21;10.60;;;6.30;;
68509;SDS011;55512;50.102;19.958;2023-06-22T13:30:47;8.50;;;6.80;;
68509;SDS011;55512;50.102;19.958;2023-06-22T13:33:13;21.60;;;7.40;;
68509;SDS011;55512;50.102;19.958;2023-06-22T13:35:40;12.30;;;7.00;;
68509;SDS011;55512;50.102;19.958;2023-06-22T13:38:07;8.70;;;5.50;;
68509;SDS011;55512;50.102;19.958;2023-06-22T13:40:37;9.60;;;6.50;;
68509;SDS011;55512;50.102;19.958;2023-06-22T13:43:04;8.70;;;6.60;;
68509;SDS011;55512;50.102;19.958;2023-06-22T13:45:30;10.00;;;6.90;;
68509;SDS011;55512;50.102;19.958;2023-06-22T13:47:56;20.30;;;8.10;;
68509;SDS011;55512;50.102;19.958;2023-06-22T13:50:22;13.30;;;7.20;;
68509;SDS011;55512;50.102;19.958;2023-06-22T13:52:47;9.20;;;6.90;;
68509;SDS011;55512;50.102;19.958;2023-06-22T13:55:13;12.80;;;6.90;;
68509;SDS011;55512;50.102;19.958;2023-06-22T13:57:39;9.70;;;6.60;;
68509;SDS011;55512;50.102;19.958;2023-06-22T14:00:06;11.40;;;6.20;;
68509;SDS011;55512;50.102;19.958;2023-06-22T14:02:37;9.80;;;6.30;;
68509;SDS011;55512;50.102;19.958;2023-06-22T14:05:03;13.80;;;6.60;;
68509;SDS011;55512;50.102;19.958;2023-06-22T14:07:29;11.10;;;7.00;;
68509;SDS011;55512;50.102;19.958;2023-06-22T14:09:54;9.50;;;6.20;;
68509;SDS011;55512;50.102;19.958;2023-06-22T14:12:20;8.40;;;6.80;;
68509;SDS011;55512;50.102;19.958;2023-06-22T14:14:45;8.50;;;6.60;;
68509;SDS011;55512;50.102;19.958;2023-06-22T14:17:11;9.90;;;6.10;;
68509;SDS011;55512;50.102;19.958;2023-06-22T14:19:36;16.50;;;7.20;;
68509;SDS011;55512;50.102;19.958;2023-06-22T14:22:02;8.60;;;6.40;;
68509;SDS011;55512;50.102;19.958;2023-06-22T14:24:28;9.90;;;6.50;;